createdAt,value
2023-04-29T00:03:29.113Z,99418.59
2023-04-29T00:08:31.047Z,99412.34
2023-04-29T00:13:32.766Z,99414.84
2023-04-29T00:18:34.505Z,99413.28
2023-04-29T00:23:36.234Z,99399.81
2023-04-29T00:28:37.967Z,99399.94
2023-04-29T00:33:40.842Z,99395.72
2023-04-29T00:38:42.640Z,99393.94
2023-04-29T00:43:44.407Z,99391.09
2023-04-29T00:48:46.086Z,99390.81
2023-04-29T00:53:49.650Z,99390.00
2023-04-29T00:58:52.693Z,99400.47
2023-04-29T01:03:55.129Z,99390.03
2023-04-29T01:09:04.621Z,99388.88
2023-04-29T01:14:07.687Z,99384.53
2023-04-29T01:19:37.294Z,99389.41
2023-04-29T01:24:39.751Z,99389.91
2023-04-29T01:30:27.243Z,99393.34
2023-04-29T01:35:54.961Z,99405.28
2023-04-29T01:41:13.531Z,99415.38
2023-04-29T01:46:18.605Z,99415.56
2023-04-29T01:51:21.862Z,99407.22
2023-04-29T01:56:23.592Z,99412.91
2023-04-29T02:01:36.880Z,99417.91
2023-04-29T02:06:39.256Z,99424.59
2023-04-29T02:11:41.208Z,99429.56
2023-04-29T02:16:46.479Z,99421.78
2023-04-29T02:21:49.339Z,99421.38
2023-04-29T02:26:53.614Z,99411.09
2023-04-29T02:31:55.652Z,99403.59
2023-04-29T02:36:57.432Z,99398.13
2023-04-29T02:41:59.188Z,99398.88
2023-04-29T02:47:01.172Z,99392.66
2023-04-29T02:52:03.217Z,99408.19
2023-04-29T02:57:05.106Z,99409.28
2023-04-29T03:02:07.442Z,99403.81
2023-04-29T03:07:09.234Z,99403.44
2023-04-29T03:12:12.045Z,99390.59
2023-04-29T03:17:14.307Z,99379.00
2023-04-29T03:22:17.586Z,99379.38
2023-04-29T03:27:19.762Z,99390.41
2023-04-29T03:32:21.617Z,99391.28
2023-04-29T03:37:23.466Z,99383.63
2023-04-29T03:42:32.076Z,99380.50
2023-04-29T03:47:33.926Z,99380.63
2023-04-29T03:52:38.754Z,99375.63
2023-04-29T03:57:45.921Z,99383.34
2023-04-29T04:02:49.427Z,99384.91
2023-04-29T04:07:52.922Z,99381.94
2023-04-29T04:13:21.078Z,99390.16
2023-04-29T04:18:23.356Z,99379.31
2023-04-29T04:23:25.321Z,99389.63
2023-04-29T04:28:29.829Z,99394.31
2023-04-29T04:33:36.554Z,99391.34
2023-04-29T04:38:38.652Z,99394.63
2023-04-29T04:43:45.530Z,99400.00
2023-04-29T04:49:03.713Z,99391.38
2023-04-29T04:54:09.609Z,99398.13
2023-04-29T04:59:13.198Z,99405.38
2023-04-29T05:04:15.798Z,99411.81
2023-04-29T05:09:17.977Z,99417.38
2023-04-29T05:14:20.883Z,99407.81
2023-04-29T05:19:22.862Z,99404.44
2023-04-29T05:24:24.853Z,99415.38
2023-04-29T05:29:28.036Z,99416.19
2023-04-29T05:34:34.014Z,99423.44
2023-04-29T05:39:35.842Z,99430.84
2023-04-29T05:44:44.951Z,99421.31
2023-04-29T05:49:46.827Z,99428.47
2023-04-29T05:54:48.996Z,99433.91
2023-04-29T05:59:50.923Z,99439.50
2023-04-29T06:04:53.291Z,99439.19
2023-04-29T06:10:21.211Z,99443.50
2023-04-29T06:15:24.418Z,99445.22
2023-04-29T06:20:27.397Z,99450.22
2023-04-29T06:25:29.142Z,99457.94
2023-04-29T06:30:34.157Z,99458.75
2023-04-29T06:35:41.017Z,99465.19
2023-04-29T06:40:42.813Z,99470.22
2023-04-29T06:46:03.115Z,99471.47
2023-04-29T06:51:13.724Z,99474.47
2023-04-29T06:56:16.953Z,99476.97
2023-04-29T07:01:19.032Z,99475.16
2023-04-29T07:06:20.788Z,99476.75
2023-04-29T07:11:24.749Z,99490.03
2023-04-29T07:16:28.188Z,99496.91
2023-04-29T07:21:30.762Z,99497.91
2023-04-29T07:26:32.631Z,99491.41
2023-04-29T07:31:37.411Z,99492.53
2023-04-29T07:36:39.957Z,99505.47
2023-04-29T07:41:41.823Z,99513.06
2023-04-29T07:46:43.556Z,99512.22
2023-04-29T07:51:45.375Z,99516.53
2023-04-29T07:56:47.095Z,99527.97
2023-04-29T08:01:48.856Z,99534.13
2023-04-29T08:06:50.842Z,99543.56
2023-04-29T08:11:52.528Z,99546.06
2023-04-29T08:16:55.415Z,99544.97
2023-04-29T08:21:57.140Z,99551.59
2023-04-29T08:26:59.284Z,99556.38
2023-04-29T08:32:01.534Z,99564.56
2023-04-29T08:37:03.325Z,99566.72
2023-04-29T08:42:11.873Z,99576.84
2023-04-29T08:47:14.906Z,99575.63
2023-04-29T08:52:16.735Z,99578.50
2023-04-29T08:57:18.541Z,99591.19
2023-04-29T09:02:21.624Z,99599.03
2023-04-29T09:07:24.553Z,99598.81
2023-04-29T09:12:26.656Z,99593.00
2023-04-29T09:17:48.360Z,99610.06
2023-04-29T09:22:52.056Z,99618.28
2023-04-29T09:27:55.660Z,99614.84
2023-04-29T09:33:10.012Z,99626.53
2023-04-29T09:38:15.842Z,99635.22
2023-04-29T09:43:19.053Z,99639.72
2023-04-29T09:48:20.739Z,99636.19
2023-04-29T09:53:30.373Z,99636.19
2023-04-29T09:58:38.132Z,99643.72
2023-04-29T10:03:42.835Z,99648.53
2023-04-29T10:08:46.468Z,99650.88
2023-04-29T10:13:52.214Z,99648.78
2023-04-29T10:18:56.350Z,99658.09
2023-04-29T10:23:59.855Z,99656.28
2023-04-29T10:29:04.282Z,99659.84
2023-04-29T10:34:05.926Z,99664.97
2023-04-29T10:39:13.749Z,99668.31
2023-04-29T10:44:15.654Z,99672.50
2023-04-29T10:49:17.664Z,99678.28
2023-04-29T10:54:25.731Z,99688.59
2023-04-29T10:59:33.360Z,99682.91
2023-04-29T11:04:35.156Z,99685.31
2023-04-29T11:09:38.738Z,99694.81
2023-04-29T11:14:40.430Z,99698.84
2023-04-29T11:19:53.353Z,99704.22
2023-04-29T11:25:00.844Z,99699.28
2023-04-29T11:30:05.366Z,99710.31
2023-04-29T11:35:15.295Z,99713.53
2023-04-29T11:40:17.442Z,99716.41
2023-04-29T11:45:19.577Z,99713.94
2023-04-29T11:50:21.309Z,99720.38
2023-04-29T11:55:23.075Z,99731.81
2023-04-29T12:00:27.878Z,99733.94
2023-04-29T12:05:30.207Z,99727.56
2023-04-29T12:10:32.681Z,99739.56
2023-04-29T12:15:35.482Z,99746.56
2023-04-29T12:20:39.344Z,99772.75
2023-04-29T12:25:44.455Z,99771.91
2023-04-29T12:30:50.723Z,99776.03
2023-04-29T12:35:55.310Z,99792.34
2023-04-29T12:41:00.989Z,99791.50
2023-04-29T12:46:04.163Z,99801.59
2023-04-29T12:51:06.013Z,99809.06
2023-04-29T12:56:08.437Z,99815.34
2023-04-29T13:06:11.874Z,99830.56
2023-04-29T13:11:13.707Z,99832.66
2023-04-29T13:16:15.875Z,99834.19
2023-04-29T13:21:17.662Z,99844.06
2023-04-29T13:26:19.386Z,99835.78
2023-04-29T13:31:21.353Z,99848.44
2023-04-29T13:36:23.142Z,99858.84
2023-04-29T13:41:26.723Z,99865.94
2023-04-29T13:46:31.258Z,99861.91
2023-04-29T13:52:20.336Z,99863.81
2023-04-29T13:57:47.485Z,99871.34
2023-04-29T14:02:25.136Z,99869.59
2023-04-29T14:07:27.904Z,99875.41
2023-04-29T14:12:29.630Z,99881.38
2023-04-29T14:17:31.472Z,99887.91
2023-04-29T14:22:33.321Z,99904.38
2023-04-29T14:27:36.826Z,99903.44
2023-04-29T14:32:38.622Z,99896.19
2023-04-29T14:37:40.470Z,99894.22
2023-04-29T14:42:42.303Z,99904.22
2023-04-29T14:47:44.385Z,99906.59
2023-04-29T14:52:46.402Z,99916.00
2023-04-29T14:57:48.129Z,99918.28
2023-04-29T15:02:50.869Z,99920.13
2023-04-29T15:07:52.808Z,99925.41
2023-04-29T15:12:55.111Z,99922.00
2023-04-29T15:17:56.981Z,99928.78
2023-04-29T15:22:58.822Z,99934.69
2023-04-29T15:28:01.668Z,99928.97
2023-04-29T15:33:04.653Z,99942.38
2023-04-29T15:38:07.126Z,99944.25
2023-04-29T15:43:09.026Z,99948.94
2023-04-29T15:48:10.729Z,99951.16
2023-04-29T15:53:13.045Z,99954.53
2023-04-29T15:58:15.009Z,99953.50
2023-04-29T16:03:16.893Z,99954.53
2023-04-29T16:08:18.796Z,99962.53
2023-04-29T16:13:21.870Z,99967.72
2023-04-29T16:18:23.780Z,99967.56
2023-04-29T16:23:25.546Z,99974.63
2023-04-29T16:28:28.226Z,99980.78
2023-04-29T16:33:30.456Z,99980.53
2023-04-29T16:38:32.201Z,99981.03
2023-04-29T16:43:34.453Z,99985.38
2023-04-29T16:48:36.313Z,99994.56
2023-04-29T16:53:38.322Z,99993.34
2023-04-29T16:58:40.093Z,99998.53
2023-04-29T17:03:48.097Z,100004.94
2023-04-29T17:08:51.559Z,100008.53
2023-04-29T17:13:53.568Z,100019.69
2023-04-29T17:18:55.271Z,100024.22
2023-04-29T17:23:57.052Z,100028.13
2023-04-29T17:28:59.123Z,100034.34
2023-04-29T17:34:18.291Z,100041.22
2023-04-29T17:39:20.366Z,100042.78
2023-04-29T17:44:23.661Z,100045.91
2023-04-29T17:49:26.526Z,100065.66
2023-04-29T17:54:29.285Z,100065.75
2023-04-29T17:59:31.090Z,100074.19
2023-04-29T18:04:32.798Z,100071.19
2023-04-29T18:09:34.869Z,100085.59
2023-04-29T18:14:36.597Z,100081.28
2023-04-29T18:19:38.345Z,100086.78
2023-04-29T18:24:39.988Z,100087.31
2023-04-29T18:29:41.641Z,100086.28
2023-04-29T18:34:43.339Z,100092.50
2023-04-29T18:39:45.102Z,100102.56
2023-04-29T18:44:48.281Z,100107.94
2023-04-29T18:49:49.958Z,100112.75
2023-04-29T18:54:51.941Z,100115.34
2023-04-29T18:59:54.346Z,100135.63
2023-04-29T19:04:56.221Z,100137.88
2023-04-29T19:09:57.931Z,100150.69
2023-04-29T19:15:00.413Z,100156.47
2023-04-29T19:20:02.088Z,100155.94
2023-04-29T19:25:05.162Z,100161.66
2023-04-29T19:30:07.692Z,100168.22
2023-04-29T19:35:09.680Z,100168.69
2023-04-29T19:40:11.753Z,100174.75
2023-04-29T19:45:13.670Z,100178.00
2023-04-29T19:50:15.689Z,100184.19
2023-04-29T19:55:17.497Z,100181.00
2023-04-29T20:00:19.442Z,100185.25
2023-04-29T20:05:21.310Z,100187.13
2023-04-29T20:10:23.097Z,100187.16
2023-04-29T20:15:24.892Z,100189.91
2023-04-29T20:20:26.888Z,100181.31
2023-04-29T20:25:28.659Z,100186.75
2023-04-29T20:30:30.565Z,100194.78
2023-04-29T20:35:32.824Z,100205.88
2023-04-29T20:40:34.985Z,100191.63
2023-04-29T20:45:38.871Z,100196.66
2023-04-29T20:50:40.491Z,100192.53
2023-04-29T20:55:42.130Z,100197.56
2023-04-29T21:00:43.816Z,100197.50
2023-04-29T21:05:45.516Z,100203.09
2023-04-29T21:10:47.386Z,100201.91
2023-04-29T21:15:49.122Z,100206.16
2023-04-29T21:20:51.261Z,100200.78
2023-04-29T21:25:52.941Z,100212.16
2023-04-29T21:30:54.697Z,100212.78
2023-04-29T21:35:56.471Z,100208.56
2023-04-29T21:40:59.416Z,100214.94
2023-04-29T21:46:01.353Z,100219.34
2023-04-29T21:51:05.185Z,100217.69
2023-04-29T21:56:07.178Z,100229.16
2023-04-29T22:01:39.726Z,100229.09
2023-04-29T22:06:41.787Z,100230.78
2023-04-29T22:11:43.959Z,100233.78
2023-04-29T22:16:45.656Z,100232.84
2023-04-29T22:21:47.604Z,100237.56
2023-04-29T22:26:49.386Z,100235.28
2023-04-29T22:31:51.099Z,100241.22
2023-04-29T22:36:52.808Z,100246.41
2023-04-29T22:41:54.465Z,100251.09
2023-04-29T22:46:56.284Z,100242.06
2023-04-29T22:51:57.988Z,100245.22
2023-04-29T22:56:59.681Z,100246.06
2023-04-29T23:02:01.529Z,100242.88
2023-04-29T23:07:03.284Z,100247.72
2023-04-29T23:12:05.290Z,100254.03
2023-04-29T23:17:07.244Z,100257.72
2023-04-29T23:22:08.971Z,100246.56
2023-04-29T23:27:11.380Z,100253.38
2023-04-29T23:32:13.004Z,100247.84
2023-04-29T23:37:14.728Z,100256.94
2023-04-29T23:42:16.463Z,100258.22
2023-04-29T23:47:18.107Z,100256.75
2023-04-29T23:52:19.926Z,100256.00
2023-04-29T23:57:21.564Z,100259.63
